sensor_id;sensor_type;location;lat;lon;timestamp;pressure;altitude;pressure_sealevel;temperature;humidity
14295;BME280;7231;59.370;18.016;2022-07-23T00:00:34;100823.03;;;18.87;87.93
14295;BME280;7231;59.370;18.016;2022-07-23T00:03:05;100828.38;;;18.83;87.83
14295;BME280;7231;59.370;18.016;2022-07-23T00:05:33;100824.88;;;18.79;87.83
14295;BME280;7231;59.370;18.016;2022-07-23T00:08:04;100747.22;;;18.28;87.78
14295;BME280;7231;59.370;18.016;2022-07-23T00:10:40;100822.25;;;18.68;87.92
14295;BME280;7231;59.370;18.016;2022-07-23T00:13:09;100823.16;;;18.67;87.69
14295;BME280;7231;59.370;18.016;2022-07-23T00:15:37;100829.38;;;18.62;87.72
14295;BME280;7231;59.370;18.016;2022-07-23T00:18:06;100822.28;;;18.58;87.79
14295;BME280;7231;59.370;18.016;2022-07-23T00:20:34;100825.84;;;18.55;87.71
14295;BME280;7231;59.370;18.016;2022-07-23T00:23:02;100827.63;;;18.52;87.46
14295;BME280;7231;59.370;18.016;2022-07-23T00:25:30;100811.75;;;18.39;87.42
14295;BME280;7231;59.370;18.016;2022-07-23T00:28:00;100830.31;;;18.47;87.64
14295;BME280;7231;59.370;18.016;2022-07-23T00:30:30;100832.09;;;18.43;87.53
14295;BME280;7231;59.370;18.016;2022-07-23T00:33:01;100835.66;;;18.39;87.30
14295;BME280;7231;59.370;18.016;2022-07-23T00:35:31;100831.22;;;18.37;87.36
14295;BME280;7231;59.370;18.016;2022-07-23T00:38:00;100828.59;;;18.28;87.55
14295;BME280;7231;59.370;18.016;2022-07-23T00:40:29;100701.50;;;17.55;87.64
14295;BME280;7231;59.370;18.016;2022-07-23T00:42:58;100833.03;;;18.24;87.88
14295;BME280;7231;59.370;18.016;2022-07-23T00:45:27;100820.75;;;18.11;88.19
14295;BME280;7231;59.370;18.016;2022-07-23T00:47:56;100832.22;;;18.16;88.49
14295;BME280;7231;59.370;18.016;2022-07-23T00:50:25;100840.19;;;18.13;88.67
14295;BME280;7231;59.370;18.016;2022-07-23T00:52:53;100831.38;;;18.05;89.09
14295;BME280;7231;59.370;18.016;2022-07-23T00:55:22;100832.28;;;17.93;89.10
14295;BME280;7231;59.370;18.016;2022-07-23T00:57:50;100825.22;;;17.91;89.42
14295;BME280;7231;59.370;18.016;2022-07-23T01:00:20;100825.22;;;17.86;89.49
14295;BME280;7231;59.370;18.016;2022-07-23T01:02:48;100828.78;;;17.82;89.64
14295;BME280;7231;59.370;18.016;2022-07-23T01:05:18;100822.59;;;17.72;89.88
14295;BME280;7231;59.370;18.016;2022-07-23T01:07:49;100843.81;;;17.78;89.79
14295;BME280;7231;59.370;18.016;2022-07-23T01:10:22;100843.81;;;17.74;89.98
14295;BME280;7231;59.370;18.016;2022-07-23T01:13:03;100846.47;;;17.72;89.88
14295;BME280;7231;59.370;18.016;2022-07-23T01:15:32;100834.97;;;17.67;89.92
14295;BME280;7231;59.370;18.016;2022-07-23T01:18:00;100801.38;;;17.37;90.25
14295;BME280;7231;59.370;18.016;2022-07-23T01:20:30;100833.19;;;17.54;90.37
14295;BME280;7231;59.370;18.016;2022-07-23T01:23:00;100773.13;;;17.16;90.36
14295;BME280;7231;59.370;18.016;2022-07-23T01:25:28;100835.84;;;17.40;90.45
14295;BME280;7231;59.370;18.016;2022-07-23T01:27:57;100830.53;;;17.36;90.42
14295;BME280;7231;59.370;18.016;2022-07-23T01:30:25;100781.94;;;17.00;90.34
14295;BME280;7231;59.370;18.016;2022-07-23T01:32:53;100837.59;;;17.25;90.40
14295;BME280;7231;59.370;18.016;2022-07-23T01:35:21;100822.56;;;17.13;90.55
14295;BME280;7231;59.370;18.016;2022-07-23T01:37:49;100828.75;;;17.13;90.72
14295;BME280;7231;59.370;18.016;2022-07-23T01:40:19;100814.59;;;16.98;91.11
14295;BME280;7231;59.370;18.016;2022-07-23T01:42:49;100840.22;;;17.00;90.92
14295;BME280;7231;59.370;18.016;2022-07-23T01:45:17;100837.56;;;16.96;91.10
14295;BME280;7231;59.370;18.016;2022-07-23T01:47:45;100839.31;;;16.92;91.35
14295;BME280;7231;59.370;18.016;2022-07-23T01:50:13;100834.91;;;16.90;91.51
14295;BME280;7231;59.370;18.016;2022-07-23T01:52:42;100840.19;;;16.88;91.42
14295;BME280;7231;59.370;18.016;2022-07-23T01:55:10;100822.50;;;16.79;91.58
14295;BME280;7231;59.370;18.016;2022-07-23T01:57:46;100837.53;;;16.80;91.81
14295;BME280;7231;59.370;18.016;2022-07-23T02:00:14;100833.09;;;16.76;91.71
14295;BME280;7231;59.370;18.016;2022-07-23T02:02:42;100806.53;;;16.61;92.24
14295;BME280;7231;59.370;18.016;2022-07-23T02:05:10;100833.97;;;16.72;91.85
14295;BME280;7231;59.370;18.016;2022-07-23T02:07:38;100823.38;;;16.71;92.05
14295;BME280;7231;59.370;18.016;2022-07-23T02:10:07;100826.91;;;16.68;92.17
14295;BME280;7231;59.370;18.016;2022-07-23T02:12:35;100826.00;;;16.66;92.37
14295;BME280;7231;59.370;18.016;2022-07-23T02:15:06;100818.06;;;16.65;92.51
14295;BME280;7231;59.370;18.016;2022-07-23T02:17:35;100817.13;;;16.64;92.58
14295;BME280;7231;59.370;18.016;2022-07-23T02:20:04;100810.06;;;16.62;92.66
14295;BME280;7231;59.370;18.016;2022-07-23T02:22:33;100817.13;;;16.60;92.61
14295;BME280;7231;59.370;18.016;2022-07-23T02:25:01;100823.31;;;16.59;92.57
14295;BME280;7231;59.370;18.016;2022-07-23T02:27:29;100811.81;;;16.52;92.50
14295;BME280;7231;59.370;18.016;2022-07-23T02:29:57;100817.13;;;16.55;92.89
14295;BME280;7231;59.370;18.016;2022-07-23T02:32:26;100809.16;;;16.52;92.93
14295;BME280;7231;59.370;18.016;2022-07-23T02:34:54;100808.28;;;16.50;92.92
14295;BME280;7231;59.370;18.016;2022-07-23T02:37:22;100812.69;;;16.49;92.92
14295;BME280;7231;59.370;18.016;2022-07-23T02:39:50;100821.50;;;16.50;92.88
14295;BME280;7231;59.370;18.016;2022-07-23T02:42:18;100814.44;;;16.47;92.88
14295;BME280;7231;59.370;18.016;2022-07-23T02:44:46;100805.59;;;16.44;92.68
14295;BME280;7231;59.370;18.016;2022-07-23T02:47:14;100801.19;;;16.41;92.40
14295;BME280;7231;59.370;18.016;2022-07-23T02:49:44;100813.53;;;16.41;92.15
14295;BME280;7231;59.370;18.016;2022-07-23T02:52:12;100792.28;;;16.21;91.65
14295;BME280;7231;59.370;18.016;2022-07-23T02:54:40;100812.63;;;16.37;91.64
14295;BME280;7231;59.370;18.016;2022-07-23T02:57:08;100826.75;;;16.36;91.62
14295;BME280;7231;59.370;18.016;2022-07-23T02:59:36;100800.22;;;16.19;91.53
14295;BME280;7231;59.370;18.016;2022-07-23T03:02:04;100831.13;;;16.30;91.34
14295;BME280;7231;59.370;18.016;2022-07-23T03:04:32;100826.72;;;16.27;91.41
14295;BME280;7231;59.370;18.016;2022-07-23T03:07:01;100832.88;;;16.24;91.49
14295;BME280;7231;59.370;18.016;2022-07-23T03:09:29;100834.63;;;16.21;91.35
14295;BME280;7231;59.370;18.016;2022-07-23T03:11:57;100845.19;;;16.21;91.46
14295;BME280;7231;59.370;18.016;2022-07-23T03:14:25;100844.31;;;16.22;91.34
14295;BME280;7231;59.370;18.016;2022-07-23T03:16:54;100845.19;;;16.21;91.27
14295;BME280;7231;59.370;18.016;2022-07-23T03:19:22;100852.25;;;16.23;91.20
14295;BME280;7231;59.370;18.016;2022-07-23T03:21:51;100850.50;;;16.24;91.25
14295;BME280;7231;59.370;18.016;2022-07-23T03:24:20;100850.47;;;16.18;90.94
14295;BME280;7231;59.370;18.016;2022-07-23T03:26:50;100858.44;;;16.24;90.95
14295;BME280;7231;59.370;18.016;2022-07-23T03:29:18;100856.69;;;16.24;90.85
14295;BME280;7231;59.370;18.016;2022-07-23T03:31:46;100851.38;;;16.24;90.64
14295;BME280;7231;59.370;18.016;2022-07-23T03:34:14;100854.94;;;16.27;90.70
14295;BME280;7231;59.370;18.016;2022-07-23T03:36:42;100856.69;;;16.28;90.55
14295;BME280;7231;59.370;18.016;2022-07-23T03:39:10;100845.22;;;16.27;90.46
14295;BME280;7231;59.370;18.016;2022-07-23T03:41:41;100831.09;;;16.25;90.39
14295;BME280;7231;59.370;18.016;2022-07-23T03:44:09;100832.91;;;16.32;90.38
14295;BME280;7231;59.370;18.016;2022-07-23T03:46:37;100830.25;;;16.34;90.50
14295;BME280;7231;59.370;18.016;2022-07-23T03:49:05;100825.88;;;16.37;90.43
14295;BME280;7231;59.370;18.016;2022-07-23T03:51:34;100831.16;;;16.39;90.43
14295;BME280;7231;59.370;18.016;2022-07-23T03:54:01;100840.88;;;16.41;90.12
14295;BME280;7231;59.370;18.016;2022-07-23T03:56:30;100832.94;;;16.41;89.79
14295;BME280;7231;59.370;18.016;2022-07-23T03:58:59;100840.03;;;16.48;89.66
14295;BME280;7231;59.370;18.016;2022-07-23T04:01:28;100780.81;;;16.17;89.53
14295;BME280;7231;59.370;18.016;2022-07-23T04:03:56;100807.34;;;16.37;89.51
14295;BME280;7231;59.370;18.016;2022-07-23T04:06:24;100840.06;;;16.61;89.48
14295;BME280;7231;59.370;18.016;2022-07-23T04:08:52;100825.94;;;16.55;88.98
14295;BME280;7231;59.370;18.016;2022-07-23T04:11:20;100840.13;;;16.67;88.83
14295;BME280;7231;59.370;18.016;2022-07-23T04:13:49;100846.31;;;16.66;88.53
14295;BME280;7231;59.370;18.016;2022-07-23T04:16:18;100843.66;;;16.69;88.42
14295;BME280;7231;59.370;18.016;2022-07-23T04:18:46;100840.97;;;16.64;88.25
14295;BME280;7231;59.370;18.016;2022-07-23T04:21:14;100846.31;;;16.67;88.42
14295;BME280;7231;59.370;18.016;2022-07-23T04:23:42;100842.78;;;16.67;88.36
14295;BME280;7231;59.370;18.016;2022-07-23T04:26:10;100849.84;;;16.69;88.31
14295;BME280;7231;59.370;18.016;2022-07-23T04:28:43;100857.78;;;16.71;88.36
14295;BME280;7231;59.370;18.016;2022-07-23T04:31:11;100857.78;;;16.71;88.43
14295;BME280;7231;59.370;18.016;2022-07-23T04:33:40;100859.56;;;16.69;88.65
14295;BME280;7231;59.370;18.016;2022-07-23T04:36:08;100862.19;;;16.67;88.50
14295;BME280;7231;59.370;18.016;2022-07-23T04:38:36;100856.91;;;16.69;88.43
14295;BME280;7231;59.370;18.016;2022-07-23T04:41:04;100851.63;;;16.70;88.35
14295;BME280;7231;59.370;18.016;2022-07-23T04:43:32;100850.75;;;16.73;88.11
14295;BME280;7231;59.370;18.016;2022-07-23T04:46:00;100851.63;;;16.73;88.04
14295;BME280;7231;59.370;18.016;2022-07-23T04:48:29;100853.41;;;16.76;87.91
14295;BME280;7231;59.370;18.016;2022-07-23T04:50:58;100860.47;;;16.78;87.68
14295;BME280;7231;59.370;18.016;2022-07-23T04:53:26;100826.84;;;16.64;87.74
14295;BME280;7231;59.370;18.016;2022-07-23T04:55:54;100810.94;;;16.53;87.48
14295;BME280;7231;59.370;18.016;2022-07-23T04:58:22;100859.59;;;16.78;87.79
14295;BME280;7231;59.370;18.016;2022-07-23T05:00:50;100855.16;;;16.78;87.45
14295;BME280;7231;59.370;18.016;2022-07-23T05:03:18;100865.78;;;16.80;87.47
14295;BME280;7231;59.370;18.016;2022-07-23T05:05:46;100863.13;;;16.83;87.60
14295;BME280;7231;59.370;18.016;2022-07-23T05:08:16;100858.72;;;16.86;87.18
14295;BME280;7231;59.370;18.016;2022-07-23T05:10:44;100856.94;;;16.82;87.33
14295;BME280;7231;59.370;18.016;2022-07-23T05:13:14;100871.97;;;16.85;87.33
14295;BME280;7231;59.370;18.016;2022-07-23T05:15:42;100868.44;;;16.83;87.48
14295;BME280;7231;59.370;18.016;2022-07-23T05:18:10;100877.25;;;16.83;87.55
14295;BME280;7231;59.370;18.016;2022-07-23T05:20:38;100833.91;;;16.62;87.51
14295;BME280;7231;59.370;18.016;2022-07-23T05:23:07;100865.75;;;16.75;87.58
14295;BME280;7231;59.370;18.016;2022-07-23T05:25:36;100871.06;;;16.75;87.72
14295;BME280;7231;59.370;18.016;2022-07-23T05:28:04;100870.19;;;16.78;87.52
14295;BME280;7231;59.370;18.016;2022-07-23T05:30:32;100866.66;;;16.79;87.48
14295;BME280;7231;59.370;18.016;2022-07-23T05:33:00;100840.09;;;16.64;87.31
14295;BME280;7231;59.370;18.016;2022-07-23T05:35:28;100853.38;;;16.74;87.37
14295;BME280;7231;59.370;18.016;2022-07-23T05:37:56;100793.28;;;16.49;87.45
14295;BME280;7231;59.370;18.016;2022-07-23T05:40:24;100856.97;;;16.87;87.29
14295;BME280;7231;59.370;18.016;2022-07-23T05:42:53;100854.28;;;16.81;87.26
14295;BME280;7231;59.370;18.016;2022-07-23T05:45:22;100868.44;;;16.89;87.23
14295;BME280;7231;59.370;18.016;2022-07-23T05:47:50;100815.38;;;16.60;87.24
14295;BME280;7231;59.370;18.016;2022-07-23T05:50:18;100868.44;;;16.91;87.25
14295;BME280;7231;59.370;18.016;2022-07-23T05:52:46;100868.44;;;16.92;87.19
14295;BME280;7231;59.370;18.016;2022-07-23T05:55:15;100877.28;;;16.94;87.13
14295;BME280;7231;59.370;18.016;2022-07-23T05:57:43;100874.63;;;16.96;86.92
14295;BME280;7231;59.370;18.016;2022-07-23T06:00:13;100852.53;;;16.86;86.97
14295;BME280;7231;59.370;18.016;2022-07-23T06:02:41;100875.53;;;16.99;87.04
14295;BME280;7231;59.370;18.016;2022-07-23T06:05:09;100869.34;;;17.03;86.91
14295;BME280;7231;59.370;18.016;2022-07-23T06:07:37;100859.66;;;17.08;86.91
14295;BME280;7231;59.370;18.016;2022-07-23T06:10:06;100866.75;;;17.17;86.62
14295;BME280;7231;59.370;18.016;2022-07-23T06:12:35;100869.41;;;17.23;86.33
14295;BME280;7231;59.370;18.016;2022-07-23T06:15:03;100867.63;;;17.30;86.21
14295;BME280;7231;59.370;18.016;2022-07-23T06:17:38;100857.91;;;17.36;85.88
14295;BME280;7231;59.370;18.016;2022-07-23T06:20:08;100843.78;;;17.39;85.79
14295;BME280;7231;59.370;18.016;2022-07-23T06:22:36;100851.75;;;17.46;85.39
14295;BME280;7231;59.370;18.016;2022-07-23T06:25:05;100832.31;;;17.47;85.19
14295;BME280;7231;59.370;18.016;2022-07-23T06:27:40;100848.19;;;17.64;84.91
14295;BME280;7231;59.370;18.016;2022-07-23T06:30:09;100843.81;;;17.74;84.37
14295;BME280;7231;59.370;18.016;2022-07-23T06:32:38;100849.09;;;17.81;84.19
14295;BME280;7231;59.370;18.016;2022-07-23T06:35:07;100849.09;;;17.92;83.79
14295;BME280;7231;59.370;18.016;2022-07-23T06:37:35;100848.19;;;18.02;83.21
14295;BME280;7231;59.370;18.016;2022-07-23T06:40:04;100797.81;;;17.87;82.68
14295;BME280;7231;59.370;18.016;2022-07-23T06:42:32;100839.22;;;18.31;82.75
14295;BME280;7231;59.370;18.016;2022-07-23T06:45:04;100847.13;;;18.43;82.08
14295;BME280;7231;59.370;18.016;2022-07-23T06:47:32;100800.38;;;18.14;80.92
14295;BME280;7231;59.370;18.016;2022-07-23T06:50:02;100847.09;;;18.52;81.09
14295;BME280;7231;59.370;18.016;2022-07-23T06:52:30;100828.50;;;18.57;80.81
14295;BME280;7231;59.370;18.016;2022-07-23T06:54:58;100837.25;;;18.81;79.69
14295;BME280;7231;59.370;18.016;2022-07-23T06:57:26;100837.19;;;18.91;79.07
14295;BME280;7231;59.370;18.016;2022-07-23T06:59:58;100845.06;;;19.07;78.63
14295;BME280;7231;59.370;18.016;2022-07-23T07:02:26;100845.94;;;19.09;77.77
14295;BME280;7231;59.370;18.016;2022-07-23T07:04:54;100850.31;;;19.17;77.71
14295;BME280;7231;59.370;18.016;2022-07-23T07:07:31;100854.75;;;19.14;77.24
14295;BME280;7231;59.370;18.016;2022-07-23T07:09:59;100858.34;;;19.07;76.75
14295;BME280;7231;59.370;18.016;2022-07-23T07:12:27;100854.88;;;18.93;76.74
14295;BME280;7231;59.370;18.016;2022-07-23T07:14:56;100850.47;;;18.89;76.75
14295;BME280;7231;59.370;18.016;2022-07-23T07:17:24;100847.88;;;18.81;76.84
14295;BME280;7231;59.370;18.016;2022-07-23T07:19:52;100858.47;;;18.89;76.59
14295;BME280;7231;59.370;18.016;2022-07-23T07:22:20;100855.72;;;19.03;76.47
14295;BME280;7231;59.370;18.016;2022-07-23T07:24:49;100860.06;;;19.16;76.37
14295;BME280;7231;59.370;18.016;2022-07-23T07:27:17;100860.00;;;19.24;76.00
14295;BME280;7231;59.370;18.016;2022-07-23T07:29:46;100858.22;;;19.26;76.32
14295;BME280;7231;59.370;18.016;2022-07-23T07:32:14;100860.88;;;19.24;75.91
14295;BME280;7231;59.370;18.016;2022-07-23T07:35:03;100863.53;;;19.24;75.70
14295;BME280;7231;59.370;18.016;2022-07-23T07:37:31;100863.56;;;19.23;75.50
14295;BME280;7231;59.370;18.016;2022-07-23T07:40:01;100867.97;;;19.27;75.24
14295;BME280;7231;59.370;18.016;2022-07-23T07:42:29;100861.75;;;19.26;75.31
14295;BME280;7231;59.370;18.016;2022-07-23T07:44:58;100877.69;;;19.29;75.14
14295;BME280;7231;59.370;18.016;2022-07-23T07:47:26;100870.69;;;19.18;74.99
14295;BME280;7231;59.370;18.016;2022-07-23T07:49:54;100873.38;;;19.11;74.68
14295;BME280;7231;59.370;18.016;2022-07-23T07:52:22;100874.34;;;18.98;75.02
14295;BME280;7231;59.370;18.016;2022-07-23T07:54:50;100883.25;;;18.93;75.04
14295;BME280;7231;59.370;18.016;2022-07-23T07:57:20;100890.31;;;18.95;75.55
14295;BME280;7231;59.370;18.016;2022-07-23T07:59:48;100889.41;;;18.98;75.74
14295;BME280;7231;59.370;18.016;2022-07-23T08:02:22;100894.72;;;18.96;75.84
14295;BME280;7231;59.370;18.016;2022-07-23T08:04:50;100893.00;;;18.86;75.84
14295;BME280;7231;59.370;18.016;2022-07-23T08:07:18;100890.34;;;18.86;75.97
14295;BME280;7231;59.370;18.016;2022-07-23T08:09:46;100888.59;;;18.82;75.92
14295;BME280;7231;59.370;18.016;2022-07-23T08:12:14;100885.94;;;18.82;76.17
14295;BME280;7231;59.370;18.016;2022-07-23T08:14:44;100888.56;;;18.93;76.59
14295;BME280;7231;59.370;18.016;2022-07-23T08:17:12;100890.25;;;19.03;76.70
14295;BME280;7231;59.370;18.016;2022-07-23T08:19:41;100881.41;;;19.04;76.38
14295;BME280;7231;59.370;18.016;2022-07-23T08:22:09;100900.81;;;19.17;75.95
14295;BME280;7231;59.370;18.016;2022-07-23T08:24:37;100907.03;;;19.12;75.70
14295;BME280;7231;59.370;18.016;2022-07-23T08:27:05;100899.13;;;19.03;75.77
14295;BME280;7231;59.370;18.016;2022-07-23T08:29:33;100908.88;;;19.01;76.03
14295;BME280;7231;59.370;18.016;2022-07-23T08:32:03;100912.44;;;18.97;75.81
14295;BME280;7231;59.370;18.016;2022-07-23T08:34:51;100909.81;;;18.90;76.04
14295;BME280;7231;59.370;18.016;2022-07-23T08:37:19;100893.94;;;18.79;76.35
14295;BME280;7231;59.370;18.016;2022-07-23T08:39:47;100913.38;;;18.84;76.31
14295;BME280;7231;59.370;18.016;2022-07-23T08:42:15;100912.50;;;18.85;76.49
14295;BME280;7231;59.370;18.016;2022-07-23T08:44:45;100906.31;;;18.83;76.34
14295;BME280;7231;59.370;18.016;2022-07-23T08:47:15;100897.53;;;18.66;76.48
14295;BME280;7231;59.370;18.016;2022-07-23T08:49:43;100907.28;;;18.64;76.82
14295;BME280;7231;59.370;18.016;2022-07-23T08:52:13;100924.97;;;18.71;77.05
14295;BME280;7231;59.370;18.016;2022-07-23T08:54:42;100930.25;;;18.75;76.93
14295;BME280;7231;59.370;18.016;2022-07-23T08:57:11;100934.63;;;18.86;76.98
14295;BME280;7231;59.370;18.016;2022-07-23T08:59:39;100939.00;;;18.99;76.21
14295;BME280;7231;59.370;18.016;2022-07-23T09:02:07;100940.75;;;19.07;75.76
14295;BME280;7231;59.370;18.016;2022-07-23T09:04:36;100938.00;;;19.20;75.81
14295;BME280;7231;59.370;18.016;2022-07-23T09:07:05;100940.63;;;19.26;76.07
14295;BME280;7231;59.370;18.016;2022-07-23T09:09:33;100935.34;;;19.23;75.75
14295;BME280;7231;59.370;18.016;2022-07-23T09:12:05;100931.81;;;19.18;75.63
14295;BME280;7231;59.370;18.016;2022-07-23T09:14:38;100917.75;;;19.00;74.95
14295;BME280;7231;59.370;18.016;2022-07-23T09:17:10;100931.91;;;19.02;75.40
14295;BME280;7231;59.370;18.016;2022-07-23T09:19:41;100943.41;;;19.03;75.60
14295;BME280;7231;59.370;18.016;2022-07-23T09:22:20;100942.53;;;19.05;76.23
14295;BME280;7231;59.370;18.016;2022-07-23T09:25:08;100940.69;;;19.13;75.82
14295;BME280;7231;59.370;18.016;2022-07-23T09:27:52;100945.09;;;19.18;75.60
14295;BME280;7231;59.370;18.016;2022-07-23T09:30:22;100943.34;;;19.18;75.68
14295;BME280;7231;59.370;18.016;2022-07-23T09:33:07;100943.28;;;19.26;75.11
14295;BME280;7231;59.370;18.016;2022-07-23T09:35:49;100940.63;;;19.29;74.57
14295;BME280;7231;59.370;18.016;2022-07-23T09:38:18;100944.16;;;19.31;74.67
14295;BME280;7231;59.370;18.016;2022-07-23T09:40:47;100941.50;;;19.29;74.42
14295;BME280;7231;59.370;18.016;2022-07-23T09:43:33;100951.28;;;19.26;74.38
14295;BME280;7231;59.370;18.016;2022-07-23T09:46:19;100937.16;;;19.16;73.95
14295;BME280;7231;59.370;18.016;2022-07-23T09:48:48;100943.38;;;19.13;74.34
14295;BME280;7231;59.370;18.016;2022-07-23T09:51:17;100950.44;;;19.14;74.66
14295;BME280;7231;59.370;18.016;2022-07-23T09:53:48;100958.44;;;19.11;74.94
14295;BME280;7231;59.370;18.016;2022-07-23T09:56:17;100951.38;;;19.07;75.17
14295;BME280;7231;59.370;18.016;2022-07-23T09:58:53;100961.13;;;19.05;75.28
14295;BME280;7231;59.370;18.016;2022-07-23T10:01:30;100959.34;;;19.04;75.26
14295;BME280;7231;59.370;18.016;2022-07-23T10:03:59;100953.16;;;19.05;75.44
14295;BME280;7231;59.370;18.016;2022-07-23T10:06:31;100954.00;;;19.10;75.26
14295;BME280;7231;59.370;18.016;2022-07-23T10:08:59;100956.63;;;19.17;75.28
14295;BME280;7231;59.370;18.016;2022-07-23T10:11:30;100956.63;;;19.17;75.36
14295;BME280;7231;59.370;18.016;2022-07-23T10:14:00;100962.81;;;19.19;75.45
14295;BME280;7231;59.370;18.016;2022-07-23T10:16:31;100904.50;;;18.90;75.39
14295;BME280;7231;59.370;18.016;2022-07-23T10:18:59;100958.41;;;19.18;75.25
14295;BME280;7231;59.370;18.016;2022-07-23T10:21:37;100953.13;;;19.11;75.46
14295;BME280;7231;59.370;18.016;2022-07-23T10:24:16;100960.25;;;19.02;75.04
14295;BME280;7231;59.370;18.016;2022-07-23T10:26:57;100968.25;;;18.94;75.23
14295;BME280;7231;59.370;18.016;2022-07-23T10:29:37;100927.63;;;18.65;75.29
14295;BME280;7231;59.370;18.016;2022-07-23T10:32:20;100963.91;;;18.75;75.72
14295;BME280;7231;59.370;18.016;2022-07-23T10:34:54;100977.22;;;18.66;76.39
14295;BME280;7231;59.370;18.016;2022-07-23T10:37:32;100937.41;;;18.38;76.76
14295;BME280;7231;59.370;18.016;2022-07-23T10:40:13;100971.88;;;18.58;77.00
14295;BME280;7231;59.370;18.016;2022-07-23T10:42:44;100973.66;;;18.58;76.83
14295;BME280;7231;59.370;18.016;2022-07-23T10:45:24;100944.50;;;18.42;77.14
14295;BME280;7231;59.370;18.016;2022-07-23T10:47:53;100970.13;;;18.62;76.93
14295;BME280;7231;59.370;18.016;2022-07-23T10:50:24;100965.72;;;18.64;77.10
14295;BME280;7231;59.370;18.016;2022-07-23T10:53:15;100964.81;;;18.68;77.44
14295;BME280;7231;59.370;18.016;2022-07-23T10:55:47;100839.34;;;17.93;77.35
14295;BME280;7231;59.370;18.016;2022-07-23T10:58:46;100953.31;;;18.55;77.47
14295;BME280;7231;59.370;18.016;2022-07-23T11:01:34;100961.28;;;18.57;77.85
14295;BME280;7231;59.370;18.016;2022-07-23T11:04:04;100974.56;;;18.52;77.79
14295;BME280;7231;59.370;18.016;2022-07-23T11:07:07;100972.81;;;18.43;78.32
14295;BME280;7231;59.370;18.016;2022-07-23T11:09:43;100971.94;;;18.35;77.92
14295;BME280;7231;59.370;18.016;2022-07-23T11:12:35;100977.25;;;18.34;77.58
14295;BME280;7231;59.370;18.016;2022-07-23T11:15:07;100980.78;;;18.28;77.71
14295;BME280;7231;59.370;18.016;2022-07-23T11:17:37;100978.16;;;18.22;77.94
14295;BME280;7231;59.370;18.016;2022-07-23T11:20:20;100989.66;;;18.27;77.69
14295;BME280;7231;59.370;18.016;2022-07-23T11:22:50;100949.88;;;18.06;77.64
14295;BME280;7231;59.370;18.016;2022-07-23T11:25:33;100989.66;;;18.29;78.06
14295;BME280;7231;59.370;18.016;2022-07-23T11:28:09;100982.56;;;18.28;77.86
14295;BME280;7231;59.370;18.016;2022-07-23T11:30:39;100986.09;;;18.28;77.89
14295;BME280;7231;59.370;18.016;2022-07-23T11:33:19;100976.41;;;18.09;78.45
14295;BME280;7231;59.370;18.016;2022-07-23T11:35:49;100994.97;;;18.24;78.70
14295;BME280;7231;59.370;18.016;2022-07-23T11:38:19;100991.41;;;18.24;79.40
14295;BME280;7231;59.370;18.016;2022-07-23T11:40:51;100927.78;;;17.82;79.78
14295;BME280;7231;59.370;18.016;2022-07-23T11:43:21;100985.28;;;18.12;79.97
14295;BME280;7231;59.370;18.016;2022-07-23T11:45:51;100995.88;;;18.15;80.46
14295;BME280;7231;59.370;18.016;2022-07-23T11:48:21;100990.56;;;18.19;81.00
14295;BME280;7231;59.370;18.016;2022-07-23T11:50:51;100940.16;;;17.88;81.31
14295;BME280;7231;59.370;18.016;2022-07-23T11:53:23;100984.34;;;18.21;81.93
14295;BME280;7231;59.370;18.016;2022-07-23T11:55:52;100977.25;;;18.28;81.79
14295;BME280;7231;59.370;18.016;2022-07-23T11:58:21;100975.47;;;18.34;81.45
14295;BME280;7231;59.370;18.016;2022-07-23T12:00:50;100953.34;;;18.32;81.24
14295;BME280;7231;59.370;18.016;2022-07-23T12:03:19;100973.69;;;18.48;81.26
14295;BME280;7231;59.370;18.016;2022-07-23T12:05:48;100970.16;;;18.46;80.94
14295;BME280;7231;59.370;18.016;2022-07-23T12:08:16;100974.59;;;18.43;80.52
14295;BME280;7231;59.370;18.016;2022-07-23T12:10:44;100973.72;;;18.30;80.24
14295;BME280;7231;59.370;18.016;2022-07-23T12:13:15;100983.44;;;18.31;80.14
14295;BME280;7231;59.370;18.016;2022-07-23T12:15:45;100987.88;;;18.32;79.74
14295;BME280;7231;59.370;18.016;2022-07-23T12:18:16;100983.44;;;18.34;79.15
14295;BME280;7231;59.370;18.016;2022-07-23T12:20:48;100989.63;;;18.33;79.11
14295;BME280;7231;59.370;18.016;2022-07-23T12:23:18;100987.84;;;18.40;78.84
14295;BME280;7231;59.370;18.016;2022-07-23T12:25:48;100983.41;;;18.49;78.35
14295;BME280;7231;59.370;18.016;2022-07-23T12:28:19;100986.06;;;18.60;78.16
14295;BME280;7231;59.370;18.016;2022-07-23T12:30:49;100986.03;;;18.74;78.00
14295;BME280;7231;59.370;18.016;2022-07-23T12:33:22;100991.34;;;18.80;77.19
14295;BME280;7231;59.370;18.016;2022-07-23T12:35:52;100988.69;;;18.80;76.70
14295;BME280;7231;59.370;18.016;2022-07-23T12:38:21;100986.03;;;18.78;76.31
14295;BME280;7231;59.370;18.016;2022-07-23T12:40:52;100993.13;;;18.73;75.83
14295;BME280;7231;59.370;18.016;2022-07-23T12:43:23;100967.47;;;18.57;75.78
14295;BME280;7231;59.370;18.016;2022-07-23T12:45:53;100985.19;;;18.63;75.95
14295;BME280;7231;59.370;18.016;2022-07-23T12:48:24;100991.38;;;18.63;75.68
14295;BME280;7231;59.370;18.016;2022-07-23T12:50:55;100993.16;;;18.63;75.60
14295;BME280;7231;59.370;18.016;2022-07-23T12:53:26;100992.28;;;18.62;75.74
14295;BME280;7231;59.370;18.016;2022-07-23T12:56:04;100986.06;;;18.68;76.02
14295;BME280;7231;59.370;18.016;2022-07-23T12:58:52;100996.66;;;18.77;75.73
14295;BME280;7231;59.370;18.016;2022-07-23T13:01:23;101002.84;;;18.85;75.48
14295;BME280;7231;59.370;18.016;2022-07-23T13:03:58;100980.72;;;18.81;75.42
14295;BME280;7231;59.370;18.016;2022-07-23T13:06:28;100990.44;;;18.86;74.69